| time (UTC) | temp C | wind direction | speed KPH | gust KPH | rain 1hr cm | rain 24hr cm | rain mn cm | humidity % | barometer mb |
| 20260506222038 | 10 | 71 | 3.2 | 9.7 | 0.08 | 4.14 | 0.08 | 94 | 1012.6 |
| 20260506221547 | 10 | 90 | 3.2 | 6.4 | 0.05 | 4.11 | 0.05 | 94 | 1012.6 |
| 20260506221034 | 10 | 15 | 1.6 | 6.4 | 0.05 | 4.11 | 0.03 | 94 | 1012.6 |
| 20260506220536 | 10 | 0 | 0.0 | 3.2 | 0.03 | 4.09 | 0.00 | 94 | 1012.7 |
| 20260506220053 | 10 | 5 | 0.0 | 4.8 | 0.00 | 4.06 | 0.00 | 94 | 1012.7 |
| 20260506215534 | 10 | 333 | 0.0 | 4.8 | 0.00 | 4.22 | 4.06 | 94 | 1012.8 |
| 20260506215034 | 10 | 303 | 0.0 | 3.2 | 0.00 | 4.22 | 4.06 | 94 | 1012.9 |
| 20260506214551 | 10 | 0 | 0.0 | 3.2 | 0.03 | 4.22 | 4.06 | 94 | 1012.7 |
| 20260506214035 | 10 | 340 | 1.6 | 4.8 | 0.05 | 4.22 | 4.06 | 94 | 1012.5 |
| 20260506213538 | 10 | 33 | 0.0 | 4.8 | 0.08 | 4.22 | 4.06 | 94 | 1012.6 |
| 20260506213048 | 10 | 0 | 1.6 | 6.4 | 0.08 | 4.22 | 4.06 | 94 | 1012.5 |
| 20260506212534 | 10 | 94 | 1.6 | 6.4 | 0.08 | 4.22 | 4.06 | 93 | 1012.5 |
| 20260506212035 | 10 | 51 | 1.6 | 8.0 | 0.08 | 4.22 | 4.06 | 93 | 1012.3 |
| 20260506211549 | 10 | 65 | 4.8 | 8.0 | 0.08 | 4.22 | 4.06 | 93 | 1012.0 |
| 20260506211034 | 10 | 31 | 1.6 | 4.8 | 0.08 | 4.22 | 4.04 | 93 | 1012.0 |
| 20260506210534 | 10 | 355 | 1.6 | 4.8 | 0.08 | 4.22 | 4.04 | 93 | 1012.4 |
| 20260506210048 | 10 | 327 | 1.6 | 6.4 | 0.08 | 4.22 | 4.04 | 94 | 1012.5 |
| 20260506205535 | 10 | 46 | 1.6 | 6.4 | 0.08 | 4.39 | 4.04 | 94 | 1012.3 |
| 20260506205035 | 10 | 42 | 3.2 | 6.4 | 0.10 | 4.39 | 4.04 | 94 | 1012.3 |
| 20260506204558 | 10 | 41 | 1.6 | 3.2 | 0.10 | 4.37 | 4.04 | 94 | 1012.3 |
| 20260506204038 | 10 | 0 | 0.0 | 4.8 | 0.08 | 4.34 | 4.01 | 94 | 1012.3 |
| 20260506203535 | 10 | 340 | 1.6 | 4.8 | 0.08 | 4.32 | 3.99 | 93 | 1012.3 |
| 20260506203045 | 10 | 0 | 0.0 | 6.4 | 0.08 | 4.32 | 3.96 | 93 | 1012.1 |
| 20260506202535 | 10 | 343 | 1.6 | 6.4 | 0.10 | 4.32 | 3.96 | 93 | 1011.9 |
| 20260506202035 | 10 | 325 | 0.0 | 4.8 | 0.13 | 4.32 | 3.96 | 93 | 1011.8 |
| 20260506201544 | 10 | 0 | 0.0 | 4.8 | 0.15 | 4.32 | 3.96 | 93 | 1011.8 |
| 20260506201038 | 10 | 317 | 0.0 | 4.8 | 0.13 | 4.29 | 3.94 | 92 | 1011.8 |
| 20260506200534 | 10 | 319 | 0.0 | 4.8 | 0.13 | 4.29 | 3.94 | 92 | 1011.9 |
| 20260506195535 | 10 | 35 | 1.6 | 12.9 | 0.13 | 4.37 | 3.94 | 92 | 1011.7 |
| 20260506195036 | 10 | 115 | 1.6 | 12.9 | 0.13 | 4.37 | 3.94 | 92 | 1011.7 |
| 20260506194550 | 10 | 328 | 1.6 | 8.0 | 0.18 | 4.34 | 3.91 | 93 | 1011.5 |
| 20260506194035 | 10 | 0 | 0.0 | 8.0 | 0.25 | 4.34 | 3.91 | 93 | 1011.3 |
| 20260506193537 | 10 | 9 | 4.8 | 8.0 | 0.33 | 4.32 | 3.89 | 92 | 1011.3 |
| 20260506193047 | 10 | 42 | 4.8 | 8.0 | 0.36 | 4.32 | 3.89 | 92 | 1011.4 |
| 20260506192538 | 10 | 45 | 1.6 | 4.8 | 0.33 | 4.29 | 3.84 | 93 | 1011.3 |
| 20260506192038 | 10 | 14 | 1.6 | 4.8 | 0.30 | 4.27 | 3.84 | 93 | 1011.1 |
| 20260506191553 | 10 | 346 | 1.6 | 8.0 | 0.28 | 4.24 | 3.81 | 92 | 1011.0 |
| 20260506191035 | 10 | 355 | 3.2 | 8.0 | 0.28 | 4.24 | 3.81 | 92 | 1010.8 |
| 20260506190535 | 11 | 15 | 3.2 | 6.4 | 0.28 | 4.24 | 3.81 | 92 | 1010.7 |
| 20260506190048 | 11 | 11 | 1.6 | 3.2 | 0.28 | 4.22 | 3.78 | 92 | 1010.8 |
| 20260506185534 | 11 | 0 | 0.0 | 1.6 | 0.28 | 4.32 | 3.78 | 92 | 1010.7 |
| 20260506185041 | 11 | 0 | 0.0 | 8.0 | 0.25 | 4.29 | 3.76 | 92 | 1010.5 |
| 20260506184550 | 11 | 0 | 0.0 | 8.0 | 0.18 | 4.22 | 3.71 | 92 | 1010.5 |
| 20260506184033 | 11 | 279 | 1.6 | 8.0 | 0.13 | 4.17 | 3.66 | 92 | 1010.4 |
| 20260506183535 | 11 | 14 | 1.6 | 8.0 | 0.03 | 4.06 | 3.56 | 91 | 1010.1 |
| 20260506183102 | 11 | 65 | 1.6 | 6.4 | 0.00 | 4.04 | 3.53 | 91 | 1010.1 |
| 20260506182534 | 11 | 19 | 4.8 | 6.4 | 0.00 | 4.04 | 3.51 | 90 | 1010.4 |
| 20260506182034 | 11 | 107 | 0.0 | 3.2 | 0.00 | 4.04 | 3.51 | 90 | 1010.2 |
| 20260506181558 | 11 | 131 | 0.0 | 4.8 | 0.00 | 4.04 | 3.51 | 90 | 1010.0 |
| 20260506181036 | 12 | 102 | 0.0 | 9.7 | 0.00 | 4.04 | 3.51 | 90 | 1009.8 |
| 20260506180537 | 12 | 0 | 1.6 | 9.7 | 0.00 | 4.04 | 3.51 | 89 | 1009.7 |
| 20260506180051 | 12 | 0 | 1.6 | 4.8 | 0.00 | 4.04 | 3.51 | 89 | 1009.6 |
| 20260506175539 | 12 | 110 | 0.0 | 3.2 | 0.00 | 4.11 | 3.51 | 89 | 1009.5 |
| 20260506175034 | 12 | 110 | 0.0 | 3.2 | 0.00 | 4.11 | 3.51 | 88 | 1009.4 |
| 20260506174549 | 12 | 0 | 0.0 | 3.2 | 0.00 | 4.11 | 3.51 | 88 | 1009.3 |
| 20260506174035 | 12 | 21 | 0.0 | 3.2 | 0.00 | 4.11 | 3.51 | 86 | 1009.5 |
| 20260506173535 | 12 | 0 | 0.0 | 3.2 | 0.00 | 4.11 | 3.51 | 86 | 1009.6 |
| 20260506173055 | 12 | 135 | 0.0 | 3.2 | 0.00 | 4.11 | 3.51 | 86 | 1009.4 |
| 20260506172535 | 12 | 130 | 1.6 | 3.2 | 0.00 | 4.11 | 3.51 | 87 | 1009.4 |
| 20260506172035 | 12 | 0 | 0.0 | 4.8 | 0.00 | 4.11 | 3.51 | 86 | 1009.5 |
| 20260506171550 | 12 | 97 | 0.0 | 4.8 | 0.00 | 4.11 | 3.51 | 87 | 1009.5 |
| 20260506171035 | 12 | 0 | 0.0 | 6.4 | 0.00 | 4.11 | 3.51 | 88 | 1009.5 |
| 20260506170534 | 12 | 0 | 1.6 | 6.4 | 0.00 | 4.11 | 3.51 | 89 | 1009.5 |
| 20260506170053 | 12 | 155 | 1.6 | 4.8 | 0.00 | 4.11 | 3.51 | 90 | 1009.4 |
| 20260506165538 | 12 | 196 | 0.0 | 3.2 | 0.00 | 4.17 | 3.51 | 90 | 1009.4 |
| 20260506165036 | 12 | 196 | 0.0 | 3.2 | 0.00 | 4.17 | 3.51 | 90 | 1009.5 |
| 20260506164551 | 12 | 175 | 0.0 | 6.4 | 0.00 | 4.17 | 3.51 | 90 | 1009.5 |
| 20260506164034 | 12 | 0 | 0.0 | 6.4 | 0.00 | 4.17 | 3.51 | 89 | 1009.5 |
| 20260506163535 | 12 | 171 | 1.6 | 8.0 | 0.00 | 4.17 | 3.51 | 89 | 1009.5 |
| 20260506163054 | 12 | 142 | 1.6 | 8.0 | 0.00 | 4.17 | 3.51 | 88 | 1009.4 |
| 20260506162535 | 12 | 144 | 1.6 | 6.4 | 0.00 | 4.17 | 3.51 | 90 | 1009.1 |
| 20260506162035 | 12 | 0 | 1.6 | 8.0 | 0.00 | 4.17 | 3.51 | 89 | 1009.1 |
| 20260506161603 | 12 | 167 | 1.6 | 8.0 | 0.00 | 4.17 | 3.51 | 90 | 1009.0 |
| 20260506161034 | 12 | 0 | 1.6 | 8.0 | 0.00 | 4.17 | 3.51 | 90 | 1009.1 |
| 20260506160535 | 12 | 232 | 3.2 | 8.0 | 0.00 | 4.17 | 3.51 | 94 | 1009.2 |
| 20260506160048 | 12 | 203 | 0.0 | 4.8 | 0.00 | 4.17 | 3.51 | 96 | 1009.2 |
| 20260506155534 | 11 | 229 | 0.0 | 4.8 | 0.00 | 4.19 | 3.51 | 96 | 1009.5 |
| 20260506155034 | 11 | 0 | 0.0 | 4.8 | 0.00 | 4.19 | 3.51 | 96 | 1009.4 |
| 20260506154548 | 11 | 0 | 0.0 | 4.8 | 0.00 | 4.19 | 3.51 | 96 | 1009.4 |
| 20260506154035 | 11 | 0 | 0.0 | 3.2 | 0.00 | 4.19 | 3.51 | 95 | 1009.5 |
| 20260506153534 | 10 | 0 | 0.0 | 3.2 | 0.00 | 4.19 | 3.51 | 95 | 1009.5 |
| 20260506153045 | 10 | 0 | 0.0 | 4.8 | 0.00 | 4.19 | 3.51 | 96 | 1009.5 |
| 20260506152535 | 10 | 0 | 0.0 | 4.8 | 0.00 | 4.19 | 3.51 | 95 | 1009.7 |
| 20260506152038 | 10 | 0 | 0.0 | 4.8 | 0.00 | 4.19 | 3.51 | 96 | 1009.7 |
| 20260506151602 | 10 | 0 | 0.0 | 6.4 | 0.00 | 4.19 | 3.51 | 95 | 1009.7 |
| 20260506151034 | 10 | 0 | 0.0 | 8.0 | 0.00 | 4.19 | 3.51 | 96 | 1009.7 |
| 20260506150535 | 10 | 225 | 1.6 | 8.0 | 0.00 | 4.19 | 3.51 | 95 | 1009.7 |
| 20260506150046 | 10 | 243 | 0.0 | 4.8 | 0.00 | 4.19 | 3.51 | 95 | 1009.6 |
| 20260506145535 | 10 | 0 | 1.6 | 4.8 | 0.00 | 4.19 | 3.51 | 95 | 1009.6 |
| 20260506145034 | 10 | 124 | 0.0 | 4.8 | 0.00 | 4.19 | 3.51 | 95 | 1009.6 |
| 20260506144551 | 10 | 0 | 1.6 | 8.0 | 0.00 | 4.19 | 3.51 | 95 | 1009.6 |
| 20260506144041 | 10 | 82 | 1.6 | 8.0 | 0.00 | 4.19 | 3.51 | 95 | 1009.7 |
| 20260506143535 | 10 | 113 | 0.0 | 4.8 | 0.00 | 4.19 | 3.51 | 96 | 1009.9 |
| 20260506143057 | 10 | 0 | 0.0 | 6.4 | 0.00 | 4.19 | 3.51 | 95 | 1009.9 |
| 20260506142534 | 11 | 123 | 1.6 | 6.4 | 0.00 | 4.19 | 3.51 | 96 | 1009.9 |
| 20260506142034 | 11 | 128 | 1.6 | 6.4 | 0.00 | 4.19 | 3.51 | 96 | 1010.0 |
| 20260506141547 | 10 | 110 | 1.6 | 4.8 | 0.00 | 4.19 | 3.51 | 96 | 1010.0 |
| 20260506141036 | 10 | 0 | 0.0 | 3.2 | 0.00 | 4.19 | 3.51 | 96 | 1009.9 |
| 20260506140536 | 10 | 0 | 0.0 | 9.7 | 0.03 | 4.19 | 3.51 | 96 | 1010.1 |
| 20260506140056 | 10 | 0 | 1.6 | 9.7 | 0.08 | 4.19 | 3.51 | 95 | 1010.0 |
| 20260506135536 | 10 | 167 | 3.2 | 9.7 | 0.08 | 4.22 | 3.51 | 95 | 1010.3 |
| 20260506135035 | 10 | 0 | 1.6 | 4.8 | 0.13 | 4.22 | 3.51 | 95 | 1010.3 |
| 20260506134545 | 9 | 0 | 0.0 | 8.0 | 0.15 | 4.22 | 3.51 | 95 | 1010.4 |
| 20260506134035 | 9 | 24 | 3.2 | 11.3 | 0.25 | 4.22 | 3.51 | 95 | 1010.5 |
| 20260506133535 | 9 | 37 | 3.2 | 14.5 | 0.43 | 4.22 | 3.51 | 95 | 1010.6 |
| 20260506133048 | 9 | 76 | 4.8 | 14.5 | 0.64 | 4.22 | 3.51 | 94 | 1010.6 |
| 20260506132534 | 9 | 59 | 6.4 | 14.5 | 0.79 | 4.22 | 3.51 | 94 | 1010.6 |
| 20260506132038 | 9 | 100 | 4.8 | 11.3 | 0.86 | 4.22 | 3.48 | 94 | 1010.6 |
| 20260506131545 | 9 | 31 | 1.6 | 11.3 | 0.89 | 4.22 | 3.48 | 94 | 1010.3 |
| 20260506131039 | 9 | 315 | 3.2 | 20.9 | 0.89 | 4.22 | 3.48 | 95 | 1010.0 |
| 20260506130534 | 9 | 41 | 9.7 | 20.9 | 1.07 | 4.19 | 3.48 | 94 | 1009.2 |
| 20260506125536 | 9 | 300 | 1.6 | 16.1 | 1.35 | 4.14 | 3.40 | 94 | 1010.4 |
| 20260506125034 | 9 | 220 | 6.4 | 16.1 | 1.35 | 4.11 | 3.38 | 93 | 1010.1 |
| 20260506124550 | 10 | 233 | 3.2 | 12.9 | 1.37 | 4.06 | 3.33 | 94 | 1009.6 |
| 20260506124035 | 10 | 184 | 1.6 | 9.7 | 1.30 | 3.96 | 3.23 | 95 | 1009.6 |
| 20260506123535 | 10 | 282 | 1.6 | 16.1 | 1.14 | 3.78 | 3.05 | 95 | 1009.9 |
| 20260506123048 | 10 | 228 | 1.6 | 25.7 | 0.94 | 3.56 | 2.82 | 94 | 1009.9 |
| 20260506122535 | 10 | 294 | 8.0 | 25.7 | 0.81 | 3.45 | 2.72 | 93 | 1010.0 |
| 20260506122034 | 10 | 329 | 3.2 | 14.5 | 0.69 | 3.33 | 2.59 | 94 | 1009.9 |
| 20260506121547 | 10 | 345 | 3.2 | 14.5 | 0.69 | 3.33 | 2.59 | 94 | 1009.5 |
| 20260506121035 | 10 | 292 | 8.0 | 14.5 | 0.69 | 3.33 | 2.59 | 94 | 1009.3 |
| 20260506120535 | 11 | 254 | 1.6 | 9.7 | 0.46 | 3.10 | 2.36 | 94 | 1008.8 |
| 20260506120053 | 11 | 331 | 1.6 | 14.5 | 0.28 | 2.90 | 2.16 | 94 | 1008.7 |
| 20260506115534 | 11 | 269 | 0.0 | 14.5 | 0.15 | 2.79 | 2.06 | 93 | 1009.1 |
| 20260506115034 | 11 | 277 | 3.2 | 14.5 | 0.10 | 2.74 | 2.01 | 93 | 1008.8 |
| 20260506114546 | 11 | 0 | 0.0 | 4.8 | 0.05 | 2.69 | 1.96 | 93 | 1008.5 |
| 20260506114034 | 11 | 327 | 1.6 | 6.4 | 0.00 | 2.64 | 1.91 | 93 | 1008.2 |
| 20260506113534 | 11 | 0 | 0.0 | 9.7 | 0.00 | 2.62 | 1.88 | 93 | 1008.3 |
| 20260506113049 | 11 | 73 | 1.6 | 11.3 | 0.05 | 2.62 | 1.88 | 93 | 1008.2 |
| 20260506112534 | 11 | 47 | 1.6 | 11.3 | 0.08 | 2.62 | 1.88 | 93 | 1008.1 |
| 20260506112034 | 11 | 57 | 3.2 | 8.0 | 0.08 | 2.62 | 1.88 | 93 | 1008.2 |
| 20260506111549 | 11 | 82 | 1.6 | 11.3 | 0.08 | 2.62 | 1.88 | 93 | 1008.2 |
| 20260506111037 | 11 | 5 | 4.8 | 11.3 | 0.08 | 2.62 | 1.88 | 93 | 1008.2 |
| 20260506110535 | 11 | 98 | 3.2 | 9.7 | 0.08 | 2.62 | 1.88 | 93 | 1008.2 |
| 20260506110053 | 11 | 76 | 0.0 | 9.7 | 0.08 | 2.62 | 1.88 | 93 | 1008.2 |
| 20260506105535 | 11 | 77 | 4.8 | 14.5 | 0.08 | 2.67 | 1.88 | 93 | 1008.5 |
| 20260506105035 | 11 | 38 | 6.4 | 14.5 | 0.08 | 2.67 | 1.88 | 93 | 1008.8 |
| 20260506104544 | 11 | 36 | 1.6 | 9.7 | 0.08 | 2.67 | 1.88 | 93 | 1008.9 |
| 20260506104034 | 12 | 182 | 1.6 | 9.7 | 0.08 | 2.67 | 1.88 | 94 | 1008.9 |
| 20260506103535 | 12 | 52 | 3.2 | 9.7 | 0.05 | 2.64 | 1.88 | 94 | 1008.8 |
| 20260506103047 | 11 | 344 | 1.6 | 8.0 | 0.00 | 2.62 | 1.83 | 95 | 1008.8 |
| 20260506102535 | 11 | 61 | 3.2 | 8.0 | 0.00 | 2.59 | 1.80 | 94 | 1008.9 |
| 20260506102035 | 11 | 169 | 0.0 | 3.2 | 0.00 | 2.59 | 1.80 | 94 | 1008.9 |
| 20260506101553 | 11 | 144 | 0.0 | 4.8 | 0.00 | 2.59 | 1.80 | 94 | 1008.8 |
| 20260506101036 | 11 | 0 | 0.0 | 4.8 | 0.00 | 2.59 | 1.80 | 93 | 1008.8 |
| 20260506100535 | 11 | 319 | 1.6 | 4.8 | 0.00 | 2.59 | 1.80 | 94 | 1008.7 |
| 20260506100048 | 11 | 0 | 0.0 | 11.3 | 0.00 | 2.59 | 1.80 | 94 | 1008.5 |
| 20260506095538 | 11 | 39 | 1.6 | 11.3 | 0.00 | 2.62 | 1.80 | 94 | 1008.5 |
| 20260506095035 | 11 | 57 | 4.8 | 11.3 | 0.00 | 2.62 | 1.80 | 93 | 1008.5 |
| 20260506094554 | 12 | 122 | 3.2 | 9.7 | 0.00 | 2.62 | 1.80 | 93 | 1008.4 |
| 20260506094037 | 12 | 128 | 1.6 | 6.4 | 0.00 | 2.62 | 1.80 | 94 | 1008.2 |
| 20260506093540 | 12 | 164 | 0.0 | 8.0 | 0.00 | 2.62 | 1.80 | 94 | 1008.2 |
| 20260506093053 | 12 | 290 | 1.6 | 12.9 | 0.00 | 2.62 | 1.80 | 95 | 1008.2 |
| 20260506092535 | 11 | 28 | 3.2 | 12.9 | 0.00 | 2.62 | 1.78 | 96 | 1008.2 |
| 20260506092035 | 11 | 15 | 4.8 | 14.5 | 0.00 | 2.62 | 1.78 | 96 | 1008.2 |
| 20260506091547 | 11 | 5 | 6.4 | 14.5 | 0.00 | 2.62 | 1.78 | 96 | 1008.4 |
| 20260506091040 | 11 | 65 | 6.4 | 12.9 | 0.00 | 2.62 | 1.78 | 96 | 1008.4 |
| 20260506090536 | 11 | 80 | 4.8 | 12.9 | 0.00 | 2.62 | 1.78 | 96 | 1008.2 |
| 20260506090047 | 11 | 101 | 3.2 | 12.9 | 0.00 | 2.62 | 1.78 | 96 | 1008.2 |
| 20260506085536 | 11 | 84 | 4.8 | 11.3 | 0.00 | 2.82 | 1.78 | 97 | 1008.1 |
| 20260506085036 | 11 | 54 | 3.2 | 12.9 | 0.00 | 2.82 | 1.78 | 97 | 1008.0 |
| 20260506084550 | 11 | 101 | 4.8 | 12.9 | 0.00 | 2.82 | 1.78 | 97 | 1008.0 |
| 20260506084036 | 11 | 77 | 4.8 | 9.7 | 0.00 | 2.82 | 1.78 | 97 | 1008.0 |
| 20260506083539 | 11 | 69 | 3.2 | 9.7 | 0.00 | 2.82 | 1.78 | 97 | 1008.1 |
| 20260506083048 | 11 | 115 | 1.6 | 12.9 | 0.00 | 2.82 | 1.78 | 97 | 1008.3 |
| 20260506082542 | 11 | 0 | 1.6 | 12.9 | 0.00 | 2.82 | 1.78 | 97 | 1008.2 |
| 20260506082040 | 11 | 80 | 4.8 | 12.9 | 0.00 | 2.82 | 1.78 | 97 | 1008.3 |
| 20260506081548 | 11 | 97 | 4.8 | 11.3 | 0.00 | 2.82 | 1.78 | 97 | 1008.3 |
| 20260506081038 | 11 | 113 | 3.2 | 8.0 | 0.00 | 2.82 | 1.78 | 97 | 1008.3 |
| 20260506080537 | 11 | 81 | 1.6 | 8.0 | 0.00 | 2.82 | 1.78 | 97 | 1008.4 |
| 20260506073051 | 10 | 112 | 1.6 | 22.5 | 0.03 | 3.25 | 1.78 | 97 | 1008.7 |
| 20260506072537 | 10 | 40 | 4.8 | 22.5 | 0.08 | 3.25 | 1.78 | 97 | 1008.7 |
| 20260506072038 | 10 | 51 | 9.7 | 20.9 | 0.08 | 3.23 | 1.78 | 97 | 1008.8 |
| 20260506071604 | 10 | 9 | 9.7 | 16.1 | 0.10 | 3.23 | 1.78 | 97 | 1008.9 |
| 20260506071033 | 10 | 109 | 3.2 | 16.1 | 0.15 | 3.23 | 1.78 | 97 | 1008.9 |
| 20260506070538 | 10 | 355 | 4.8 | 16.1 | 0.18 | 3.23 | 1.78 | 97 | 1008.7 |
| 20260506062039 | 10 | 82 | 4.8 | 12.9 | 0.30 | 3.30 | 1.68 | 97 | 1009.0 |
| 20260506061546 | 10 | 121 | 3.2 | 6.4 | 0.28 | 3.28 | 1.65 | 97 | 1009.0 |
| 20260506061037 | 10 | 82 | 1.6 | 4.8 | 0.28 | 3.23 | 1.60 | 97 | 1009.0 |
| 20260506060538 | 10 | 14 | 0.0 | 4.8 | 0.28 | 3.20 | 1.57 | 97 | 1009.1 |
| 20260506051036 | 10 | 22 | 0.0 | 3.2 | 0.28 | 3.02 | 1.32 | 97 | 1009.3 |
| 20260506050535 | 10 | 0 | 0.0 | 3.2 | 0.28 | 3.00 | 1.30 | 97 | 1009.6 |
| 20260506045035 | 10 | 69 | 1.6 | 4.8 | 0.28 | 2.92 | 1.22 | 97 | 1009.6 |
| 20260506044551 | 10 | 0 | 0.0 | 6.4 | 0.33 | 2.92 | 1.22 | 97 | 1009.6 |
| 20260506044035 | 10 | 175 | 1.6 | 8.0 | 0.33 | 2.90 | 1.19 | 97 | 1009.7 |
| 20260506043540 | 10 | 44 | 1.6 | 8.0 | 0.36 | 2.90 | 1.17 | 97 | 1009.6 |
| 20260506043045 | 10 | 13 | 3.2 | 8.0 | 0.36 | 2.84 | 1.12 | 97 | 1009.6 |
| 20260506042535 | 10 | 0 | 3.2 | 8.0 | 0.41 | 2.82 | 1.12 | 97 | 1009.7 |
| 20260506042038 | 10 | 59 | 0.0 | 3.2 | 0.41 | 2.82 | 1.09 | 97 | 1009.7 |
| 20260506041555 | 10 | 0 | 0.0 | 3.2 | 0.38 | 2.79 | 1.07 | 97 | 1009.8 |
| 20260506041035 | 10 | 114 | 1.6 | 4.8 | 0.38 | 2.74 | 1.02 | 97 | 1009.9 |
| 20260506040535 | 10 | 106 | 0.0 | 4.8 | 0.36 | 2.72 | 1.02 | 97 | 1009.7 |
| 20260506040048 | 10 | 109 | 1.6 | 4.8 | 0.36 | 2.69 | 0.97 | 97 | 1009.7 |
| 20260506035538 | 10 | 0 | 0.0 | 8.0 | 0.36 | 2.64 | 0.94 | 97 | 1009.7 |
| 20260506035038 | 10 | 61 | 1.6 | 8.0 | 0.36 | 2.62 | 0.91 | 97 | 1009.7 |
| 20260506034545 | 10 | 103 | 3.2 | 8.0 | 0.36 | 2.59 | 0.86 | 97 | 1009.8 |
| 20260506034036 | 10 | 92 | 3.2 | 8.0 | 0.36 | 2.54 | 0.84 | 97 | 1010.0 |
| 20260506033537 | 10 | 110 | 1.6 | 6.4 | 0.33 | 2.54 | 0.81 | 97 | 1010.0 |
| 20260506033048 | 10 | 78 | 3.2 | 6.4 | 0.28 | 2.46 | 0.74 | 97 | 1010.1 |
| 20260506032535 | 10 | 89 | 1.6 | 6.4 | 0.20 | 2.41 | 0.69 | 97 | 1010.3 |
| 20260506032035 | 10 | 105 | 0.0 | 6.4 | 0.18 | 2.39 | 0.66 | 97 | 1010.2 |
| 20260506031546 | 10 | 70 | 3.2 | 6.4 | 0.18 | 2.39 | 0.66 | 97 | 1010.2 |
| 20260506031035 | 10 | 109 | 0.0 | 6.4 | 0.15 | 2.34 | 0.64 | 97 | 1010.3 |
| 20260506030536 | 10 | 93 | 1.6 | 6.4 | 0.15 | 2.34 | 0.64 | 97 | 1010.5 |
| 20260506030052 | 10 | 102 | 0.0 | 8.0 | 0.10 | 2.31 | 0.58 | 97 | 1010.6 |
| 20260506025535 | 10 | 66 | 3.2 | 8.0 | 0.08 | 2.26 | 0.56 | 97 | 1010.5 |
| 20260506025035 | 10 | 78 | 1.6 | 4.8 | 0.08 | 2.24 | 0.53 | 97 | 1010.6 |
| 20260506024549 | 10 | 5 | 0.0 | 4.8 | 0.05 | 2.24 | 0.51 | 97 | 1010.6 |
| 20260506024035 | 10 | 0 | 0.0 | 4.8 | 0.00 | 2.18 | 0.46 | 97 | 1010.5 |
| 20260506023536 | 10 | 46 | 1.6 | 4.8 | 0.00 | 2.18 | 0.46 | 97 | 1010.7 |
| 20260506023048 | 10 | 95 | 1.6 | 6.4 | 0.00 | 2.18 | 0.46 | 97 | 1010.8 |
| 20260506022535 | 10 | 106 | 1.6 | 6.4 | 0.00 | 2.18 | 0.46 | 97 | 1011.0 |
| 20260506022035 | 10 | 144 | 3.2 | 6.4 | 0.00 | 2.18 | 0.46 | 97 | 1011.0 |
| 20260506021548 | 10 | 112 | 0.0 | 3.2 | 0.00 | 2.18 | 0.46 | 97 | 1011.0 |
| 20260506021034 | 10 | 0 | 0.0 | 3.2 | 0.00 | 2.18 | 0.46 | 97 | 1010.9 |
| 20260506020534 | 10 | 0 | 0.0 | 6.4 | 0.00 | 2.18 | 0.46 | 97 | 1011.0 |
| 20260506020041 | 10 | 0 | 0.0 | 6.4 | 0.00 | 2.18 | 0.46 | 97 | 1011.1 |
| 20260506015535 | 10 | 109 | 1.6 | 4.8 | 0.00 | 2.16 | 0.46 | 97 | 1011.0 |
| 20260506015037 | 10 | 153 | 0.0 | 4.8 | 0.00 | 2.16 | 0.46 | 97 | 1011.0 |
| 20260506014549 | 10 | 0 | 0.0 | 3.2 | 0.00 | 2.16 | 0.46 | 97 | 1011.0 |
| 20260506014034 | 10 | 153 | 0.0 | 3.2 | 0.00 | 2.16 | 0.46 | 97 | 1011.0 |
| 20260506013534 | 10 | 0 | 0.0 | 1.6 | 0.08 | 2.16 | 0.46 | 97 | 1011.0 |
| 20260506013043 | 10 | 153 | 0.0 | 1.6 | 0.28 | 2.16 | 0.46 | 97 | 1011.1 |
| 20260506012534 | 10 | 0 | 0.0 | 1.6 | 0.33 | 2.16 | 0.46 | 97 | 1011.2 |
| 20260506012035 | 10 | 0 | 0.0 | 3.2 | 0.36 | 2.16 | 0.46 | 97 | 1011.2 |
| 20260506011547 | 10 | 0 | 0.0 | 3.2 | 0.36 | 2.16 | 0.46 | 97 | 1011.1 |
| 20260506011033 | 10 | 153 | 0.0 | 3.2 | 0.36 | 2.16 | 0.46 | 97 | 1011.3 |
| 20260506010537 | 10 | 0 | 0.0 | 0.0 | 0.38 | 2.16 | 0.46 | 97 | 1011.4 |
| 20260506010047 | 10 | 0 | 0.0 | 0.0 | 0.38 | 2.16 | 0.46 | 97 | 1011.6 |
| 20260506005537 | 10 | 0 | 0.0 | 1.6 | 0.38 | 2.16 | 0.46 | 97 | 1011.7 |
| 20260506005034 | 10 | 0 | 0.0 | 3.2 | 0.38 | 2.16 | 0.46 | 97 | 1011.5 |
| 20260506004544 | 10 | 0 | 0.0 | 3.2 | 0.38 | 2.16 | 0.46 | 97 | 1011.6 |
| 20260506004034 | 10 | 0 | 0.0 | 1.6 | 0.38 | 2.16 | 0.43 | 97 | 1011.6 |
| 20260506003535 | 10 | 0 | 0.0 | 1.6 | 0.30 | 2.06 | 0.36 | 97 | 1011.6 |
| 20260506003049 | 10 | 0 | 0.0 | 3.2 | 0.10 | 1.88 | 0.15 | 97 | 1011.7 |
| 20260506002535 | 10 | 0 | 0.0 | 3.2 | 0.08 | 1.83 | 0.10 | 97 | 1011.8 |
| 20260506002034 | 10 | 0 | 0.0 | 3.2 | 0.03 | 1.78 | 0.08 | 97 | 1011.7 |
| 20260506001608 | 10 | 0 | 0.0 | 3.2 | 0.03 | 1.78 | 0.08 | 97 | 1012.0 |
| 20260506001035 | 10 | 0 | 0.0 | 3.2 | 0.03 | 1.78 | 0.08 | 97 | 1012.0 |
| 20260506000537 | 10 | 153 | 0.0 | 0.0 | 0.00 | 1.78 | 0.05 | 97 | 1012.0 |
| 20260506000050 | 10 | 0 | 0.0 | 4.8 | 0.00 | 1.78 | 0.05 | 97 | 1012.1 |
| 20260505235535 | 10 | 0 | 0.0 | 4.8 | 0.00 | 1.78 | 0.05 | 97 | 1012.2 |
| 20260505235035 | 10 | 0 | 3.2 | 4.8 | 0.00 | 1.78 | 0.05 | 97 | 1012.2 |
| 20260505234550 | 10 | 254 | 0.0 | 3.2 | 0.03 | 1.78 | 0.05 | 97 | 1012.1 |
| 20260505234037 | 10 | 0 | 0.0 | 1.6 | 0.00 | 1.75 | 0.03 | 97 | 1012.1 |
| 20260505233534 | 10 | 0 | 0.0 | 1.6 | 0.00 | 1.75 | 0.03 | 97 | 1012.3 |
| 20260505233053 | 10 | 0 | 0.0 | 1.6 | 0.00 | 1.75 | 0.03 | 97 | 1012.2 |
| 20260505232534 | 10 | 0 | 0.0 | 3.2 | 0.00 | 1.75 | 0.03 | 97 | 1012.5 |
| 20260505232035 | 10 | 0 | 0.0 | 4.8 | 0.03 | 1.75 | 0.03 | 97 | 1012.7 |
| 20260505231552 | 10 | 252 | 0.0 | 4.8 | 0.03 | 1.75 | 0.03 | 97 | 1012.6 |
| 20260505231038 | 10 | 252 | 0.0 | 4.8 | 0.03 | 1.75 | 0.03 | 97 | 1012.7 |
| 20260505230536 | 10 | 252 | 1.6 | 4.8 | 0.03 | 1.75 | 0.03 | 97 | 1012.8 |
| 20260505230049 | 10 | 246 | 1.6 | 3.2 | 0.03 | 1.75 | 0.03 | 97 | 1012.8 |
| 20260505225537 | 10 | 0 | 0.0 | 3.2 | 0.03 | 1.75 | 0.03 | 97 | 1012.7 |
| 20260505225035 | 10 | 0 | 1.6 | 3.2 | 0.03 | 1.75 | 0.03 | 97 | 1012.8 |
| 20260505224553 | 10 | 247 | 0.0 | 4.8 | 0.00 | 1.73 | 0.00 | 97 | 1012.7 |
| 20260505224034 | 10 | 0 | 1.6 | 4.8 | 0.00 | 1.73 | 0.00 | 97 | 1012.7 |
| 20260505223534 | 10 | 246 | 0.0 | 4.8 | 0.03 | 1.73 | 0.00 | 97 | 1012.7 |
| 20260505223057 | 10 | 0 | 0.0 | 4.8 | 0.05 | 1.73 | 0.00 | 97 | 1012.7 |
| 20260505222534 | 10 | 246 | 1.6 | 4.8 | 0.08 | 1.73 | 0.00 | 97 | 1012.7 |